Time;durP1;ratioP1;P1;durP2;ratioP2;P2;SDS_P1;SDS_P2;PMS_P1;PMS_P2;Temp;Humidity;BMP_temperature;BMP_pressure;BME280_temperature;BME280_humidity;BME280_pressure;Samples;Min_cycle;Max_cycle;Signal;HPM_P1;HPM_P2
2022/12/28 00:01:23;;;;;;;17.42;7.75;;;;;;;2.19;76.74;99493.61;1700155;82;25615;-67
2022/12/28 00:03:50;;;;;;;15.65;5.85;;;;;;;2.22;76.66;99490.44;1715257;82;25573;-67
2022/12/28 00:06:17;;;;;;;11.88;4.95;;;;;;;2.24;76.62;99492.35;1717662;82;26254;-67
2022/12/28 00:08:44;;;;;;;10.13;4.70;;;;;;;2.25;76.52;99492.11;1717789;82;25580;-67
2022/12/28 00:11:20;;;;;;;11.83;4.70;;;;;;;2.21;76.63;99488.25;1717669;82;29167;-67
2022/12/28 00:13:47;;;;;;;7.22;3.77;;;;;;;2.21;76.69;99487.41;1693364;82;26218;-66
2022/12/28 00:16:27;;;;;;;8.58;4.40;;;;;;;2.19;76.66;99489.55;1693861;82;25617;-67
2022/12/28 00:18:59;;;;;;;11.70;5.12;;;;;;;2.16;76.60;99480.02;1717522;81;26264;-67
2022/12/28 00:21:27;;;;;;;10.93;5.30;;;;;;;2.16;76.67;99481.91;1717467;82;25696;-67
2022/12/28 00:23:57;;;;;;;12.90;6.28;;;;;;;2.14;76.68;99484.86;1693661;82;27431;-67
2022/12/28 00:26:25;;;;;;;10.60;4.40;;;;;;;2.12;76.67;99473.45;1742592;81;25991;-67
2022/12/28 00:28:51;;;;;;;15.35;7.17;;;;;;;2.08;76.66;99481.75;1693335;82;25611;-67
2022/12/28 00:31:17;;;;;;;14.23;5.50;;;;;;;2.04;76.61;99486.80;1717552;82;26175;-66
2022/12/28 00:33:44;;;;;;;11.45;4.58;;;;;;;1.98;76.71;99489.09;1701481;82;25632;-66
2022/12/28 00:36:12;;;;;;;8.73;4.35;;;;;;;1.93;76.79;99488.99;1717705;82;27466;-67
2022/12/28 00:38:39;;;;;;;13.20;5.05;;;;;;;1.91;76.81;99486.52;1717595;82;25704;-66
2022/12/28 00:41:07;;;;;;;11.25;4.55;;;;;;;1.87;76.98;99484.81;1717387;82;25683;-66
2022/12/28 00:43:33;;;;;;;9.03;4.87;;;;;;;1.83;77.00;99484.16;1693300;82;25612;-66
2022/12/28 00:46:00;;;;;;;9.33;4.53;;;;;;;1.78;77.16;99488.92;1716942;82;25450;-66
2022/12/28 00:48:26;;;;;;;12.95;6.60;;;;;;;1.74;77.17;99479.64;1716920;82;27490;-66
2022/12/28 00:51:05;;;;;;;16.65;6.72;;;;;;;1.71;77.16;99482.81;1693048;82;25619;-66
2022/12/28 00:53:31;;;;;;;19.82;7.67;;;;;;;1.68;77.31;99482.77;1720155;82;25671;-66
2022/12/28 00:56:10;;;;;;;18.27;8.48;;;;;;;1.65;77.18;99485.10;1717807;82;26085;-66
2022/12/28 00:58:37;;;;;;;22.20;8.60;;;;;;;1.61;77.28;99486.08;1718046;82;25605;-66
2022/12/28 01:01:06;;;;;;;18.62;8.55;;;;;;;1.59;77.50;99489.56;1717178;82;27300;-66
2022/12/28 01:03:32;;;;;;;20.77;9.00;;;;;;;1.56;77.56;99486.81;1701587;82;25685;-65
2022/12/28 01:05:58;;;;;;;19.15;8.00;;;;;;;1.57;77.56;99495.20;1742091;82;25647;-66
2022/12/28 01:08:24;;;;;;;23.67;8.33;;;;;;;1.54;77.60;99500.23;1717354;82;26228;-66
2022/12/28 01:10:50;;;;;;;19.57;8.50;;;;;;;1.53;77.57;99493.20;1701683;82;25455;-66
2022/12/28 01:13:17;;;;;;;19.00;8.03;;;;;;;1.49;77.55;99492.31;1717627;82;29520;-66
2022/12/28 01:15:43;;;;;;;16.77;6.30;;;;;;;1.44;78.01;99490.02;1693279;82;25477;-66
2022/12/28 01:18:09;;;;;;;20.12;8.90;;;;;;;1.38;78.04;99486.35;1693566;82;25697;-66
2022/12/28 01:20:38;;;;;;;13.48;6.28;;;;;;;1.35;77.94;99491.70;1717354;82;25619;-65
2022/12/28 01:23:05;;;;;;;12.58;5.50;;;;;;;1.33;78.20;99487.08;1743127;82;25637;-66
2022/12/28 01:25:33;;;;;;;25.50;11.65;;;;;;;1.30;78.22;99486.19;1700474;82;27495;-66
2022/12/28 01:27:59;;;;;;;18.40;7.85;;;;;;;1.30;78.17;99492.10;1693659;82;25486;-65
2022/12/28 01:30:25;;;;;;;22.95;9.55;;;;;;;1.26;78.29;99493.08;1700102;82;25696;-67
2022/12/28 01:32:51;;;;;;;13.90;6.47;;;;;;;1.25;78.21;99492.80;1694003;82;25489;-66
2022/12/28 01:35:17;;;;;;;16.85;7.45;;;;;;;1.26;78.28;99495.78;1693380;82;25445;-66
2022/12/28 01:37:44;;;;;;;14.00;5.92;;;;;;;1.25;78.33;99499.55;1693525;82;27297;-66
2022/12/28 01:40:14;;;;;;;7.03;3.90;;;;;;;1.25;78.40;99490.09;1717739;82;25723;-65
2022/12/28 01:42:40;;;;;;;15.00;6.80;;;;;;;1.21;78.61;99487.57;1742408;82;32455;-66
2022/12/28 01:45:20;;;;;;;14.30;7.40;;;;;;;1.18;78.62;99481.28;1693855;82;25732;-66
2022/12/28 01:47:51;;;;;;;15.98;7.72;;;;;;;1.16;78.58;99480.67;1743030;82;25734;-65
2022/12/28 01:50:20;;;;;;;;;;;;;;;1.13;78.50;99481.97;1745622;81;27449;-66
2022/12/28 01:52:54;;;;;;;17.73;6.00;;;;;;;1.11;78.48;99478.67;1743059;82;25472;-65
2022/12/28 01:55:28;;;;;;;19.10;7.90;;;;;;;1.06;78.70;99474.50;1717721;82;25534;-65
2022/12/28 01:58:07;;;;;;;13.68;5.75;;;;;;;1.03;78.80;99473.61;1743055;82;25950;-65
2022/12/28 02:00:34;;;;;;;6.78;3.42;;;;;;;1.00;79.14;99466.27;1738865;82;25482;-66
2022/12/28 02:03:04;;;;;;;12.78;6.62;;;;;;;0.99;79.35;99462.44;1693840;82;27316;-65
2022/12/28 02:05:36;;;;;;;14.68;6.95;;;;;;;0.95;79.36;99455.33;1717941;82;25486;-65
2022/12/28 02:08:07;;;;;;;9.98;4.47;;;;;;;0.97;79.36;99455.92;1741408;82;25600;-66
2022/12/28 02:10:37;;;;;;;16.35;7.08;;;;;;;0.95;79.37;99463.42;1742996;82;25618;-66
2022/12/28 02:13:09;;;;;;;7.75;4.42;;;;;;;0.96;79.31;99454.81;1693828;82;25705;-66
2022/12/28 02:15:40;;;;;;;9.55;4.33;;;;;;;0.95;79.47;99454.52;1717797;82;27352;-65
2022/12/28 02:18:16;;;;;;;12.25;6.10;;;;;;;0.95;79.41;99447.77;1717774;82;25631;-66
2022/12/28 02:21:11;;;;;;;5.58;3.10;;;;;;;0.94;79.28;99434.80;1742591;81;25771;-66
2022/12/28 02:24:05;;;;;;;22.00;7.42;;;;;;;0.93;79.51;99425.06;1717456;82;25856;-65
2022/12/28 02:27:18;;;;;;;17.70;7.15;;;;;;;0.94;79.31;99413.20;1714647;82;25498;-66
2022/12/28 02:29:55;;;;;;;8.88;5.05;;;;;;;0.96;79.16;99415.16;1707921;82;27148;-65
2022/12/28 02:32:38;;;;;;;10.85;4.75;;;;;;;0.96;79.42;99407.58;1717293;82;25867;-66
2022/12/28 02:35:25;;;;;;;16.48;6.17;;;;;;;0.95;79.46;99409.98;1717371;82;25675;-66
2022/12/28 02:37:56;;;;;;;9.85;4.65;;;;;;;0.95;79.36;99407.28;1742519;82;25694;-66
2022/12/28 02:40:43;;;;;;;14.90;5.92;;;;;;;0.92;79.55;99405.85;1717489;82;25703;-66
2022/12/28 02:43:09;;;;;;;12.50;5.87;;;;;;;0.93;79.40;99411.56;1743343;82;27385;-65
2022/12/28 02:51:47;;;;;;;7.85;3.60;;;;;;;0.90;79.37;99409.33;1721730;82;25609;-66
2022/12/28 02:57:47;;;;;;;5.62;3.17;;;;;;;0.89;79.27;99392.82;1742669;82;27478;-66
2022/12/28 03:00:21;;;;;;;7.25;3.95;;;;;;;0.89;79.26;99390.67;1717514;82;25657;-66
2022/12/28 03:03:21;;;;;;;11.00;4.78;;;;;;;0.92;79.06;99392.91;1742938;82;25621;-66
2022/12/28 03:09:10;;;;;;;10.90;5.15;;;;;;;0.90;78.99;99404.45;1742622;82;25650;-66
2022/12/28 03:12:00;;;;;;;8.88;5.00;;;;;;;0.88;78.82;99392.53;1743308;82;27350;-66
2022/12/28 03:14:31;;;;;;;7.05;3.70;;;;;;;0.86;78.84;99395.98;1705425;82;25534;-66
2022/12/28 03:31:07;;;;;;;8.88;4.20;;;;;;;0.79;78.73;99397.45;1742087;82;25424;-66
2022/12/28 03:33:39;;;;;;;7.53;4.22;;;;;;;0.79;78.59;99388.00;1717457;82;25635;-66
2022/12/28 03:36:31;;;;;;;6.42;3.45;;;;;;;0.81;78.50;99385.88;1741148;82;25583;-66
2022/12/28 03:39:37;;;;;;;10.63;5.00;;;;;;;0.82;78.45;99388.06;1742750;82;28065;-65
2022/12/28 03:45:40;;;;;;;5.05;2.42;;;;;;;0.77;78.47;99379.30;1742187;82;25599;-66
2022/12/28 03:48:07;;;;;;;9.25;4.87;;;;;;;0.73;78.39;99374.92;1742107;82;25585;-65
2022/12/28 03:50:40;;;;;;;9.35;3.20;;;;;;;0.73;78.35;99366.82;1693369;82;25524;-66
2022/12/28 03:53:08;;;;;;;8.68;4.62;;;;;;;0.72;78.31;99360.31;1693901;82;27307;-66
2022/12/28 03:55:36;;;;;;;9.33;3.42;;;;;;;0.71;78.40;99359.99;1741943;82;25618;-66
2022/12/28 03:58:04;;;;;;;3.77;2.45;;;;;;;0.70;78.36;99357.01;1717804;82;25449;-66
2022/12/28 04:00:30;;;;;;;5.87;3.12;;;;;;;0.68;78.36;99348.31;1701542;82;27555;-66
2022/12/28 04:02:57;;;;;;;7.70;4.15;;;;;;;0.66;78.36;99347.74;1742001;82;25598;-65
2022/12/28 04:05:23;;;;;;;9.58;3.55;;;;;;;0.67;78.28;99342.63;1693690;82;27024;-66
2022/12/28 04:07:49;;;;;;;5.90;2.92;;;;;;;0.66;78.28;99339.10;1692979;82;25651;-65
2022/12/28 04:10:15;;;;;;;6.87;2.95;;;;;;;0.67;78.22;99334.02;1693448;82;25636;-66
2022/12/28 04:12:41;;;;;;;9.65;4.35;;;;;;;0.68;78.14;99325.38;1701735;82;26979;-66
2022/12/28 04:15:09;;;;;;;6.97;4.20;;;;;;;0.72;78.03;99319.30;1701553;82;25516;-66
2022/12/28 04:17:35;;;;;;;10.38;4.08;;;;;;;0.73;77.94;99321.48;1701628;82;27079;-67
2022/12/28 04:20:03;;;;;;;3.85;2.08;;;;;;;0.74;77.88;99315.84;1741978;81;25495;-65
2022/12/28 04:22:29;;;;;;;10.38;4.85;;;;;;;0.73;77.84;99318.78;1693790;82;25749;-64
2022/12/28 04:24:55;;;;;;;10.48;3.37;;;;;;;0.79;77.72;99312.97;1701351;82;25618;-66
2022/12/28 04:27:22;;;;;;;8.95;3.90;;;;;;;0.81;77.66;99314.92;1693353;82;25709;-66
2022/12/28 04:29:49;;;;;;;7.30;2.83;;;;;;;0.84;77.54;99319.85;1693509;82;28177;-65
2022/12/28 04:32:15;;;;;;;5.37;2.85;;;;;;;0.85;77.48;99311.52;1717362;82;25790;-65
2022/12/28 04:34:42;;;;;;;5.62;3.25;;;;;;;0.86;77.34;99313.16;1693129;82;25619;-65
2022/12/28 04:37:08;;;;;;;4.12;2.37;;;;;;;0.89;77.14;99305.11;1693206;82;25693;-65
2022/12/28 04:39:34;;;;;;;6.30;3.70;;;;;;;0.91;76.89;99303.53;1693484;82;25756;-65
2022/12/28 04:42:00;;;;;;;5.67;3.05;;;;;;;0.94;76.84;99303.90;1742614;82;27590;-65
2022/12/28 04:44:26;;;;;;;5.67;2.37;;;;;;;0.97;76.76;99302.59;1693192;82;25515;-65
2022/12/28 04:46:53;;;;;;;4.25;2.55;;;;;;;0.97;76.53;99307.48;1693479;82;25642;-65
2022/12/28 04:49:19;;;;;;;5.80;2.40;;;;;;;0.98;76.26;99306.96;1693226;82;25568;-65
2022/12/28 04:51:45;;;;;;;2.85;1.62;;;;;;;1.00;76.13;99298.08;1717497;82;25789;-65
2022/12/28 04:54:13;;;;;;;4.55;2.22;;;;;;;1.00;76.00;99294.87;1742032;82;27433;-66
2022/12/28 04:56:39;;;;;;;4.87;2.67;;;;;;;1.00;76.06;99296.22;1717036;82;25809;-65
2022/12/28 04:59:06;;;;;;;8.43;3.42;;;;;;;1.02;75.96;99291.10;1693296;82;25756;-65
2022/12/28 05:01:32;;;;;;;5.67;3.08;;;;;;;1.03;75.92;99295.47;1717261;82;25668;-66
2022/12/28 05:03:59;;;;;;;6.62;3.52;;;;;;;1.04;76.07;99297.93;1717159;82;25648;-66
2022/12/28 05:06:26;;;;;;;7.15;4.55;;;;;;;1.03;75.92;99291.41;1701917;82;27602;-65
2022/12/28 05:08:52;;;;;;;4.87;2.42;;;;;;;1.04;76.01;99293.05;1717725;82;25423;-65
2022/12/28 05:11:22;;;;;;;4.90;2.30;;;;;;;1.02;75.86;99287.88;1717587;82;25652;-65
2022/12/28 05:13:49;;;;;;;5.78;2.12;;;;;;;1.05;75.87;99287.94;1717965;82;25652;-66
2022/12/28 05:16:19;;;;;;;5.20;2.42;;;;;;;1.06;75.83;99286.89;1717455;82;25458;-65
2022/12/28 05:18:46;;;;;;;7.78;3.30;;;;;;;1.07;75.73;99286.63;1742612;81;27562;-65
2022/12/28 05:21:19;;;;;;;6.62;2.77;;;;;;;1.07;75.76;99283.94;1717357;82;25790;-65
2022/12/28 05:23:47;;;;;;;6.25;2.77;;;;;;;1.06;75.81;99288.25;1693844;82;25753;-65
2022/12/28 05:26:17;;;;;;;7.85;3.40;;;;;;;1.05;75.77;99279.31;1717972;82;25650;-65
2022/12/28 05:28:44;;;;;;;11.08;3.98;;;;;;;1.05;75.74;99277.97;1717805;82;25604;-65
2022/12/28 05:31:17;;;;;;;6.33;3.12;;;;;;;1.06;75.74;99266.66;1700660;82;27449;-65
2022/12/28 05:33:43;;;;;;;7.20;3.17;;;;;;;1.05;75.81;99267.17;1693654;82;25879;-65
2022/12/28 05:36:14;;;;;;;4.97;2.35;;;;;;;1.06;75.74;99268.00;1693706;82;25684;-66
2022/12/28 05:38:41;;;;;;;5.50;2.10;;;;;;;1.07;75.77;99270.44;1700801;82;25548;-66
2022/12/28 05:41:14;;;;;;;6.50;3.42;;;;;;;1.07;75.60;99260.19;1717735;82;25427;-65
2022/12/28 05:43:42;;;;;;;3.77;2.15;;;;;;;1.08;75.62;99265.35;1717715;82;27524;-65
2022/12/28 05:46:18;;;;;;;7.12;3.80;;;;;;;1.04;75.67;99261.48;1717974;82;25521;-66
2022/12/28 05:48:46;;;;;;;6.90;2.37;;;;;;;1.06;75.76;99264.75;1693830;82;25711;-64
2022/12/28 05:51:16;;;;;;;4.78;2.22;;;;;;;1.08;75.64;99261.82;1694002;82;26016;-65
2022/12/28 05:53:42;;;;;;;8.35;3.92;;;;;;;1.09;75.52;99266.16;1700479;82;25538;-65
2022/12/28 05:56:19;;;;;;;3.42;1.95;;;;;;;1.10;75.60;99256.47;1693438;82;30283;-66
2022/12/28 05:58:52;;;;;;;5.17;2.65;;;;;;;1.08;75.52;99261.30;1717823;82;25767;-66
2022/12/28 06:01:21;;;;;;;7.58;2.98;;;;;;;1.07;75.63;99258.84;1717799;82;25651;-65
2022/12/28 06:03:57;;;;;;;5.30;2.67;;;;;;;1.04;75.56;99247.16;1694351;82;26161;-65
2022/12/28 06:06:24;;;;;;;5.97;4.15;;;;;;;1.04;75.59;99252.05;1717728;82;25668;-65
2022/12/28 06:08:50;;;;;;;5.62;2.80;;;;;;;1.05;75.64;99246.09;1717468;82;28037;-65
2022/12/28 06:11:20;;;;;;;9.33;3.50;;;;;;;1.03;75.63;99255.78;1693702;82;25839;-66
2022/12/28 06:13:47;;;;;;;3.53;1.97;;;;;;;1.03;75.67;99252.28;1718433;82;25682;-65
2022/12/28 06:16:18;;;;;;;5.60;2.70;;;;;;;0.99;75.66;99241.12;1717776;82;25589;-66
2022/12/28 06:18:45;;;;;;;7.45;2.72;;;;;;;0.99;75.71;99243.82;1693798;82;33003;-65
2022/12/28 06:21:19;;;;;;;9.33;3.62;;;;;;;0.97;75.73;99243.22;1702540;82;26382;-65
2022/12/28 06:23:47;;;;;;;5.33;2.85;;;;;;;0.95;75.79;99242.66;1714803;82;25772;-65
2022/12/28 06:26:17;;;;;;;7.17;3.17;;;;;;;0.95;75.85;99235.91;1709511;82;25462;-65
2022/12/28 06:28:44;;;;;;;9.23;4.60;;;;;;;0.91;75.93;99235.55;1691701;82;26108;-65
2022/12/28 06:31:18;;;;;;;6.60;2.20;;;;;;;0.91;76.00;99230.15;1742061;82;25414;-65
2022/12/28 06:33:45;;;;;;;6.62;3.12;;;;;;;0.91;76.10;99225.27;1715622;82;27460;-65
2022/12/28 06:36:19;;;;;;;7.50;3.40;;;;;;;0.90;76.08;99227.17;1715043;82;25533;-66
2022/12/28 06:38:46;;;;;;;7.87;3.40;;;;;;;0.90;76.14;99225.81;1709722;82;25636;-65
2022/12/28 06:41:14;;;;;;;8.25;3.42;;;;;;;0.94;76.20;99227.50;1691227;82;25696;-65
2022/12/28 06:43:43;;;;;;;8.00;3.37;;;;;;;0.95;76.17;99225.11;1715463;82;25644;-65
2022/12/28 06:46:11;;;;;;;9.58;5.40;;;;;;;1.00;76.10;99217.11;1714823;82;29457;-65
2022/12/28 06:48:38;;;;;;;9.58;4.15;;;;;;;1.00;76.12;99210.36;1714783;82;25741;-65
2022/12/28 06:51:17;;;;;;;9.43;4.17;;;;;;;0.98;76.25;99214.64;1741871;82;25690;-66
2022/12/28 06:53:45;;;;;;;8.33;3.58;;;;;;;1.02;76.21;99218.22;1715089;82;26280;-66
2022/12/28 06:56:17;;;;;;;4.30;2.30;;;;;;;1.01;76.29;99222.82;1691088;82;25502;-66
2022/12/28 06:58:44;;;;;;;5.35;2.80;;;;;;;1.00;76.37;99218.46;1713903;82;27321;-66
2022/12/28 07:01:22;;;;;;;7.10;4.28;;;;;;;1.04;76.32;99218.82;1715142;82;25782;-67
2022/12/28 07:03:52;;;;;;;8.30;3.67;;;;;;;1.05;76.33;99223.15;1713938;82;25681;-66
2022/12/28 07:06:21;;;;;;;10.72;3.92;;;;;;;1.07;76.33;99226.45;1714854;82;25689;-66
2022/12/28 07:08:59;;;;;;;11.57;4.17;;;;;;;1.07;76.41;99221.84;1715286;82;25493;-65
2022/12/28 07:11:30;;;;;;;7.25;3.33;;;;;;;1.10;76.48;99224.63;1714890;82;28052;-65
2022/12/28 07:14:04;;;;;;;8.88;4.28;;;;;;;1.13;76.57;99224.15;1714972;82;26793;-65
2022/12/28 07:16:30;;;;;;;8.95;3.72;;;;;;;1.13;76.57;99223.60;1742105;82;25690;-66
2022/12/28 07:18:58;;;;;;;10.18;4.62;;;;;;;1.14;76.64;99217.69;1709310;82;25578;-66
2022/12/28 07:21:29;;;;;;;12.53;5.65;;;;;;;1.15;76.62;99212.56;1712660;82;25798;-66
2022/12/28 07:23:56;;;;;;;9.05;5.22;;;;;;;1.18;76.59;99212.64;1698114;82;27145;-66
2022/12/28 07:26:27;;;;;;;13.13;5.55;;;;;;;1.19;76.58;99208.87;1749496;82;25575;-66
2022/12/28 07:28:55;;;;;;;;;;;;;;;1.21;76.55;99198.67;1700469;82;25723;-66
2022/12/28 07:31:25;;;;;;;14.73;7.05;;;;;;;1.22;76.53;99201.13;1722302;82;25762;-66
2022/12/28 07:33:54;;;;;;;14.60;5.22;;;;;;;1.23;76.56;99193.31;1722052;82;25802;-66
2022/12/28 07:36:21;;;;;;;8.43;3.87;;;;;;;1.26;76.55;99198.75;1721875;82;27262;-67
2022/12/28 07:38:48;;;;;;;9.53;4.50;;;;;;;1.29;76.46;99201.53;1749296;82;27148;-65
2022/12/28 07:41:19;;;;;;;28.67;10.82;;;;;;;1.31;76.26;99206.14;1722175;82;25635;-66
2022/12/28 07:43:45;;;;;;;313.65;93.58;;;;;;;1.35;76.23;99197.33;1748723;82;26347;-66
2022/12/28 07:46:16;;;;;;;58.87;24.20;;;;;;;1.41;76.23;99206.89;1722315;82;25525;-66
2022/12/28 07:48:44;;;;;;;100.60;39.60;;;;;;;1.47;76.12;99204.59;1722559;82;27520;-66
2022/12/28 07:51:21;;;;;;;25.08;10.55;;;;;;;1.53;75.92;99200.92;1722396;82;25671;-66
2022/12/28 07:53:50;;;;;;;15.03;5.50;;;;;;;1.58;75.64;99208.31;1722968;82;25668;-66
2022/12/28 07:56:17;;;;;;;8.95;4.97;;;;;;;1.65;75.91;99203.58;1719140;82;25469;-66
2022/12/28 07:58:53;;;;;;;11.20;4.22;;;;;;;1.69;75.64;99201.20;1722130;82;25636;-66
2022/12/28 08:01:22;;;;;;;11.68;5.12;;;;;;;1.72;75.53;99196.14;1722069;82;27372;-66
2022/12/28 08:03:54;;;;;;;18.25;7.35;;;;;;;1.74;75.66;99194.55;1721843;82;25653;-66
2022/12/28 08:06:22;;;;;;;30.48;16.07;;;;;;;1.78;75.32;99192.99;1749530;82;25761;-66
2022/12/28 08:08:52;;;;;;;26.80;13.80;;;;;;;1.82;75.19;99190.64;1721980;82;25495;-66
2022/12/28 08:11:25;;;;;;;12.25;5.95;;;;;;;1.86;74.92;99193.97;1698314;82;25466;-66
2022/12/28 08:13:54;;;;;;;11.28;5.28;;;;;;;1.92;74.83;99186.76;1721900;82;27324;-66
2022/12/28 08:16:22;;;;;;;9.55;4.92;;;;;;;1.98;74.46;99183.61;1698050;82;25842;-66
2022/12/28 08:18:49;;;;;;;13.65;6.22;;;;;;;2.02;74.49;99187.48;1697913;82;25682;-66
2022/12/28 08:21:20;;;;;;;11.85;4.75;;;;;;;2.07;74.60;99185.41;1720692;82;27186;-66
2022/12/28 08:23:47;;;;;;;13.65;6.53;;;;;;;2.15;74.30;99189.56;1717184;82;25771;-66
2022/12/28 08:26:20;;;;;;;38.05;17.73;;;;;;;2.28;74.50;99189.79;1717445;82;27503;-66
2022/12/28 08:28:49;;;;;;;24.45;11.60;;;;;;;2.43;73.91;99181.09;1695481;82;25518;-66
2022/12/28 08:31:22;;;;;;;12.53;5.72;;;;;;;2.56;73.97;99184.81;1694235;82;25527;-66
2022/12/28 08:33:49;;;;;;;17.65;7.40;;;;;;;2.64;72.81;99175.45;1717369;82;26065;-66
2022/12/28 08:36:16;;;;;;;10.60;3.55;;;;;;;2.74;73.25;99185.07;1693760;82;25652;-66
2022/12/28 08:38:43;;;;;;;9.70;4.67;;;;;;;2.81;72.33;99181.38;1717933;82;27372;-66
2022/12/28 08:41:20;;;;;;;12.10;5.50;;;;;;;2.88;72.68;99185.55;1700137;82;25840;-66
2022/12/28 08:43:47;;;;;;;5.92;3.50;;;;;;;2.94;72.60;99174.23;1693696;82;25692;-67
2022/12/28 08:46:17;;;;;;;12.28;5.95;;;;;;;3.04;71.82;99178.16;1693580;82;25797;-66
2022/12/28 08:48:45;;;;;;;44.20;22.52;;;;;;;3.09;71.77;99178.23;1694354;82;25740;-66
2022/12/28 08:51:16;;;;;;;31.37;14.10;;;;;;;3.15;72.12;99181.30;1693760;82;27362;-66
2022/12/28 08:53:43;;;;;;;38.95;18.90;;;;;;;3.20;72.37;99177.28;1694912;82;25712;-66
2022/12/28 08:56:26;;;;;;;16.45;6.85;;;;;;;3.26;72.36;99180.89;1694231;82;25626;-67
2022/12/28 08:58:54;;;;;;;23.12;8.03;;;;;;;3.32;71.80;99183.95;1718716;82;25517;-67
2022/12/28 09:01:25;;;;;;;14.03;5.72;;;;;;;3.35;72.06;99177.20;1717670;82;25426;-67
2022/12/28 09:03:54;;;;;;;13.40;7.20;;;;;;;3.38;71.50;99183.46;1717877;82;27380;-66
2022/12/28 09:06:28;;;;;;;25.00;10.28;;;;;;;3.40;71.78;99185.39;1742946;81;25445;-67
2022/12/28 09:08:57;;;;;;;21.23;8.88;;;;;;;3.47;72.02;99194.14;1717643;82;25549;-67
2022/12/28 09:11:23;;;;;;;22.77;9.95;;;;;;;3.51;72.34;99188.48;1718254;82;25490;-67
2022/12/28 09:13:50;;;;;;;43.83;17.02;;;;;;;3.56;71.95;99181.48;1699952;82;25525;-66
2022/12/28 09:16:20;;;;;;;12.95;6.05;;;;;;;3.56;71.60;99182.31;1717411;82;27501;-66
2022/12/28 09:18:46;;;;;;;25.92;8.85;;;;;;;3.53;70.99;99174.69;1694289;82;25538;-66
2022/12/28 09:21:17;;;;;;;16.85;6.90;;;;;;;3.51;71.38;99176.30;1693253;81;25485;-66
2022/12/28 09:23:45;;;;;;;23.02;9.53;;;;;;;3.46;70.80;99176.26;1693789;82;25840;-67
2022/12/28 09:26:15;;;;;;;24.90;10.20;;;;;;;3.44;71.19;99184.33;1717173;82;25681;-67
2022/12/28 09:28:46;;;;;;;95.30;38.98;;;;;;;3.42;71.29;99168.33;1718031;82;27359;-66
2022/12/28 09:31:12;;;;;;;;;;;;;;;3.46;71.78;99168.66;1719799;82;25698;-66
2022/12/28 09:36:27;;;;;;;27.22;10.78;;;;;;;3.49;71.22;99169.50;1720970;82;25783;-67
2022/12/28 09:38:53;;;;;;;51.13;15.97;;;;;;;3.47;71.15;99171.63;1718699;82;25733;-67
2022/12/28 09:41:48;;;;;;;61.15;18.05;;;;;;;3.46;70.84;99167.30;1717562;82;27386;-66
2022/12/28 09:44:21;;;;;;;229.72;48.65;;;;;;;3.47;70.96;99171.11;1742468;81;25575;-66
2022/12/28 09:47:32;;;;;;;286.95;59.75;;;;;;;3.47;71.38;99182.47;1741990;82;25758;-67
2022/12/28 09:50:31;;;;;;;187.50;39.80;;;;;;;3.46;71.11;99175.42;1742309;82;32413;-65
2022/12/28 09:53:19;;;;;;;101.05;26.45;;;;;;;3.44;71.32;99182.98;1738070;82;25560;-65
2022/12/28 09:56:37;;;;;;;35.08;10.75;;;;;;;3.47;71.30;99175.70;1681980;84;28674;-65
2022/12/28 09:59:24;;;;;;;27.13;9.93;;;;;;;3.45;70.75;99159.70;1658279;85;25682;-66
2022/12/28 10:02:00;;;;;;;20.60;6.85;;;;;;;3.43;70.19;99156.44;1681436;85;25545;-66
2022/12/28 10:04:27;;;;;;;52.33;15.80;;;;;;;3.39;69.50;99156.12;1682231;85;26009;-65
2022/12/28 10:06:54;;;;;;;50.08;14.63;;;;;;;3.39;70.23;99163.42;1682011;85;25541;-65
2022/12/28 10:09:32;;;;;;;61.18;18.75;;;;;;;3.42;70.24;99160.76;1659264;85;27485;-66
2022/12/28 10:12:01;;;;;;;131.50;36.13;;;;;;;3.43;70.31;99161.03;1682146;85;25504;-65
2022/12/28 10:14:33;;;;;;;135.07;34.50;;;;;;;3.48;70.90;99157.00;1682389;85;25474;-65
2022/12/28 10:17:00;;;;;;;30.82;11.03;;;;;;;3.55;70.67;99155.46;1638093;85;25806;-65
2022/12/28 10:19:28;;;;;;;29.18;10.23;;;;;;;3.58;70.34;99144.11;1659155;85;25813;-66
2022/12/28 10:22:07;;;;;;;16.40;7.20;;;;;;;3.60;69.59;99138.71;1644448;85;27312;-65
2022/12/28 10:24:34;;;;;;;13.88;5.90;;;;;;;3.62;69.14;99124.37;1682322;84;25808;-65
2022/12/28 10:27:05;;;;;;;27.20;9.70;;;;;;;3.63;68.94;99113.02;1637256;85;25660;-65
2022/12/28 10:29:32;;;;;;;81.92;22.30;;;;;;;3.68;69.47;99105.47;1682786;85;25514;-65
2022/12/28 10:32:03;;;;;;;23.45;8.88;;;;;;;3.76;70.00;99100.91;1666688;84;25681;-65
2022/12/28 10:34:32;;;;;;;14.78;6.90;;;;;;;3.84;69.38;99086.91;1670882;83;28146;-65
2022/12/28 10:37:17;;;;;;;16.82;6.47;;;;;;;3.92;68.30;99088.32;1682156;83;25741;-66
2022/12/28 10:39:54;;;;;;;14.33;7.17;;;;;;;4.10;68.14;99084.92;1706036;83;25689;-66
2022/12/28 10:42:40;;;;;;;16.80;7.53;;;;;;;4.66;69.04;99075.48;1705261;83;26318;-66
2022/12/28 10:45:20;;;;;;;21.80;10.80;;;;;;;5.54;68.03;99069.50;1705667;83;25681;-66
2022/12/28 10:47:53;;;;;;;14.93;7.03;;;;;;;6.59;67.05;99057.45;1722660;82;27390;-66
2022/12/28 10:50:54;;;;;;;26.70;11.28;;;;;;;7.47;61.07;99054.86;1705627;83;25698;-66
2022/12/28 10:53:32;;;;;;;;;;;;;;;7.99;61.18;99046.80;1725389;82;25649;-66
2022/12/28 10:56:16;;;;;;;15.32;8.05;;;;;;;8.66;60.90;99042.59;1713708;83;25741;-66
2022/12/28 10:58:45;;;;;;;18.07;8.83;;;;;;;9.11;59.24;99050.52;1721942;82;25625;-66
2022/12/28 11:01:17;;;;;;;17.73;8.73;;;;;;;9.24;57.83;99048.16;1713889;83;27493;-66
2022/12/28 11:03:54;;;;;;;44.60;17.32;;;;;;;9.43;57.11;99053.63;1682048;83;27290;-66
2022/12/28 11:06:24;;;;;;;72.25;28.30;;;;;;;9.54;57.86;99051.55;1701442;83;25797;-66
2022/12/28 11:09:19;;;;;;;28.87;13.33;;;;;;;9.61;57.94;99047.05;1730445;82;25686;-66
2022/12/28 11:11:48;;;;;;;41.95;21.65;;;;;;;9.67;56.06;99045.86;1705640;83;25713;-66
2022/12/28 11:14:36;;;;;;;24.65;13.10;;;;;;;9.58;55.98;99036.16;1682227;83;27441;-66
2022/12/28 11:17:25;;;;;;;30.77;16.90;;;;;;;9.50;56.12;99048.58;1722536;82;25413;-66
2022/12/28 11:20:12;;;;;;;22.52;11.70;;;;;;;9.58;56.03;99040.83;1722650;82;25596;-66
2022/12/28 11:22:38;;;;;;;17.73;9.65;;;;;;;9.85;55.14;99036.56;1729182;82;25872;-66
2022/12/28 11:25:07;;;;;;;29.20;15.05;;;;;;;10.24;54.46;99032.59;1696020;82;25517;-66
2022/12/28 11:27:35;;;;;;;23.87;11.40;;;;;;;10.55;54.16;99031.22;1720472;82;27385;-66
2022/12/28 11:30:03;;;;;;;27.27;16.73;;;;;;;10.74;52.62;99023.45;1738762;82;25729;-66
2022/12/28 11:32:37;;;;;;;18.67;11.20;;;;;;;10.79;53.25;99013.19;1720610;82;25695;-66
2022/12/28 11:35:05;;;;;;;18.00;10.53;;;;;;;10.77;50.28;99004.45;1720121;82;25779;-66
2022/12/28 11:37:32;;;;;;;17.23;10.68;;;;;;;10.61;50.32;99002.59;1720658;82;25465;-66
2022/12/28 11:39:59;;;;;;;22.70;12.05;;;;;;;10.51;51.37;98997.33;1694853;82;27516;-66
2022/12/28 11:42:37;;;;;;;11.43;7.12;;;;;;;10.37;51.65;98989.90;1689220;82;25474;-66
2022/12/28 11:45:09;;;;;;;10.15;6.58;;;;;;;10.24;51.08;98986.57;1720050;82;25447;-66
2022/12/28 11:47:36;;;;;;;16.30;8.50;;;;;;;9.97;52.06;98988.17;1719853;82;25507;-66
2022/12/28 11:50:37;;;;;;;12.75;8.45;;;;;;;9.97;52.06;98988.17;1696053;82;25677;-66
2022/12/28 11:53:20;;;;;;;;;;;;;;;9.81;50.85;98993.91;1722891;82;27478;-66
2022/12/28 11:56:04;;;;;;;14.65;8.78;;;;;;;9.43;52.05;98990.70;1707130;82;25627;-66
2022/12/28 11:58:47;;;;;;;22.37;12.40;;;;;;;9.21;52.78;98991.33;1720159;82;25454;-66
2022/12/28 12:01:35;;;;;;;20.30;11.22;;;;;;;8.96;53.04;98981.84;1719783;82;25735;-66
2022/12/28 12:04:10;;;;;;;11.43;7.50;;;;;;;8.80;53.81;98980.42;1738943;82;25764;-66
2022/12/28 12:06:48;;;;;;;22.73;15.13;;;;;;;8.60;53.23;98970.81;1744695;82;27568;-66
2022/12/28 12:09:29;;;;;;;14.60;10.32;;;;;;;8.37;54.40;98965.59;1719847;82;25464;-66
2022/12/28 12:11:59;;;;;;;24.18;14.63;;;;;;;8.09;54.26;98965.39;1720149;82;25508;-66
2022/12/28 12:14:40;;;;;;;13.38;7.55;;;;;;;7.78;54.52;98952.30;1720136;82;26491;-66
2022/12/28 12:17:23;;;;;;;13.62;7.25;;;;;;;7.61;55.32;98942.38;1696177;82;25630;-66
2022/12/28 12:19:58;;;;;;;35.08;18.50;;;;;;;7.40;55.69;98946.09;1738896;82;27404;-66
2022/12/28 12:22:32;;;;;;;21.42;11.03;;;;;;;7.24;56.44;98938.60;1720710;82;25767;-66
2022/12/28 12:25:36;;;;;;;32.40;17.62;;;;;;;7.14;56.65;98937.32;1717257;82;25285;-66
2022/12/28 12:28:17;;;;;;;15.45;8.90;;;;;;;6.96;57.22;98937.42;1742506;81;25523;-66
2022/12/28 12:30:45;;;;;;;10.60;5.45;;;;;;;6.85;57.83;98930.67;1742585;82;25678;-66
2022/12/28 12:33:17;;;;;;;20.30;9.68;;;;;;;6.68;57.79;98928.33;1700118;82;27322;-66